createdAt,value
2018-12-03T00:03:43.178Z,20.88
2018-12-03T00:08:46.362Z,21.80
2018-12-03T00:13:49.545Z,18.98
2018-12-03T00:18:52.690Z,18.67
2018-12-03T00:23:55.842Z,18.02
2018-12-03T00:28:59.009Z,18.92
2018-12-03T00:34:02.212Z,19.60
2018-12-03T00:39:07.093Z,17.98
2018-12-03T00:44:10.259Z,18.83
2018-12-03T00:49:13.474Z,17.73
2018-12-03T00:54:16.680Z,17.52
2018-12-03T00:59:20.042Z,17.95
2018-12-03T01:04:23.266Z,18.50
2018-12-03T01:09:26.623Z,17.70
2018-12-03T01:14:29.818Z,16.83
2018-12-03T01:19:33.022Z,16.67
2018-12-03T01:24:36.226Z,16.25
2018-12-03T01:29:39.462Z,15.53
2018-12-03T01:34:42.678Z,12.82
2018-12-03T01:39:45.849Z,14.43
2018-12-03T01:44:49.038Z,14.60
2018-12-03T01:49:52.230Z,15.08
2018-12-03T01:54:55.439Z,15.73
2018-12-03T01:59:58.626Z,14.78
2018-12-03T02:05:01.793Z,15.90
2018-12-03T02:10:08.765Z,14.80
2018-12-03T02:15:12.970Z,14.18
2018-12-03T02:20:17.281Z,15.07
2018-12-03T02:25:20.438Z,13.43
2018-12-03T02:30:23.599Z,11.50
2018-12-03T02:35:26.775Z,11.37
2018-12-03T02:40:29.942Z,9.55
2018-12-03T02:45:33.109Z,9.90
2018-12-03T02:50:36.295Z,9.57
2018-12-03T02:55:39.568Z,10.58
2018-12-03T03:00:43.466Z,8.55
2018-12-03T03:05:46.673Z,10.30
2018-12-03T03:10:49.868Z,11.90
2018-12-03T03:15:53.153Z,9.90
2018-12-03T03:20:56.354Z,9.80
2018-12-03T03:25:59.534Z,8.40
2018-12-03T03:31:02.782Z,9.78
2018-12-03T03:36:06.005Z,10.18
2018-12-03T03:41:09.289Z,10.38
2018-12-03T03:46:12.494Z,10.30
2018-12-03T03:51:15.708Z,12.45
2018-12-03T03:56:18.885Z,13.78
2018-12-03T04:01:22.149Z,15.60
2018-12-03T04:06:25.362Z,18.02
2018-12-03T04:11:28.550Z,17.93
2018-12-03T04:16:31.739Z,18.62
2018-12-03T04:21:35.059Z,20.85
2018-12-03T04:26:38.250Z,20.60
2018-12-03T04:31:41.444Z,19.82
2018-12-03T04:36:44.681Z,16.25
2018-12-03T04:41:47.865Z,14.67
2018-12-03T04:46:51.041Z,10.50
2018-12-03T04:51:54.230Z,8.88
2018-12-03T04:56:57.419Z,10.53
2018-12-03T05:02:00.591Z,12.73
2018-12-03T05:07:03.862Z,20.48
2018-12-03T05:12:07.086Z,17.77
2018-12-03T05:17:10.270Z,20.53
2018-12-03T05:22:13.571Z,21.02
2018-12-03T05:27:16.738Z,21.57
2018-12-03T05:32:20.013Z,24.00
2018-12-03T05:37:23.181Z,19.73
2018-12-03T05:42:26.448Z,19.80
2018-12-03T05:47:29.656Z,21.68
2018-12-03T05:52:32.871Z,19.27
2018-12-03T05:57:36.191Z,17.37
2018-12-03T06:02:39.381Z,19.20
2018-12-03T06:07:42.605Z,20.57
2018-12-03T06:12:45.813Z,16.62
2018-12-03T06:17:51.293Z,16.05
2018-12-03T06:22:54.942Z,21.35
2018-12-03T06:27:58.113Z,18.75
2018-12-03T06:33:01.283Z,17.12
2018-12-03T06:38:04.453Z,18.33
2018-12-03T06:43:07.682Z,15.83
2018-12-03T06:48:15.078Z,16.12
2018-12-03T06:53:18.255Z,16.07
2018-12-03T06:58:21.459Z,16.63
2018-12-03T07:03:24.633Z,15.98
2018-12-03T07:08:27.889Z,20.10
2018-12-03T07:13:31.091Z,22.45
2018-12-03T07:18:34.554Z,23.23
2018-12-03T07:23:37.755Z,22.40
2018-12-03T07:28:41.034Z,20.02
2018-12-03T07:33:44.218Z,18.02
2018-12-03T07:38:47.534Z,18.60
2018-12-03T07:43:50.829Z,23.33
2018-12-03T07:48:54.038Z,19.32
2018-12-03T07:53:57.242Z,21.62
2018-12-03T07:59:00.554Z,22.32
2018-12-03T08:04:03.730Z,20.43
2018-12-03T08:09:09.102Z,20.82
2018-12-03T08:14:12.313Z,22.45
2018-12-03T08:19:15.552Z,21.05
2018-12-03T08:29:37.465Z,21.43
2018-12-03T08:34:40.380Z,21.25
2018-12-03T08:39:43.712Z,23.17
2018-12-03T08:44:46.173Z,22.70
2018-12-03T08:49:49.386Z,22.10
2018-12-03T08:54:52.302Z,23.30
2018-12-03T08:59:55.286Z,24.15
2018-12-03T09:04:58.193Z,20.45
2018-12-03T09:10:01.160Z,24.92
2018-12-03T09:15:03.873Z,23.07
2018-12-03T09:20:06.606Z,23.87
2018-12-03T09:25:12.273Z,26.48
2018-12-03T09:30:14.934Z,21.15
2018-12-03T09:35:17.397Z,24.18
2018-12-03T09:40:19.873Z,23.20
2018-12-03T09:45:22.645Z,22.25
2018-12-03T09:50:25.153Z,28.55
2018-12-03T09:55:27.646Z,24.92
2018-12-03T10:00:30.241Z,27.10
2018-12-03T10:05:32.729Z,24.43
2018-12-03T10:10:35.213Z,27.35
2018-12-03T10:15:37.710Z,22.53
2018-12-03T10:20:44.855Z,23.43
2018-12-03T10:25:47.318Z,25.08
2018-12-03T10:30:49.998Z,25.55
2018-12-03T10:35:52.599Z,25.55
2018-12-03T10:40:55.194Z,24.23
2018-12-03T10:45:58.201Z,24.00
2018-12-03T10:51:00.790Z,22.50
2018-12-03T10:56:03.550Z,22.80
2018-12-03T11:01:11.818Z,24.77
2018-12-03T11:06:15.958Z,23.80
2018-12-03T11:11:18.509Z,27.90
2018-12-03T11:16:21.555Z,25.77
2018-12-03T11:21:24.344Z,27.35
2018-12-03T11:26:28.749Z,24.57
2018-12-03T11:31:31.273Z,21.05
2018-12-03T11:36:33.787Z,22.52
2018-12-03T11:41:36.378Z,22.22
2018-12-03T11:46:38.973Z,20.52
2018-12-03T11:51:41.457Z,21.60
2018-12-03T11:56:43.956Z,20.97
2018-12-03T12:01:46.449Z,19.07
2018-12-03T12:06:48.915Z,19.27
2018-12-03T12:11:51.429Z,19.57
2018-12-03T12:16:54.682Z,21.55
2018-12-03T12:21:57.145Z,20.68
2018-12-03T12:26:59.625Z,21.80
2018-12-03T12:32:02.330Z,19.75
2018-12-03T12:37:05.440Z,24.43
2018-12-03T12:42:07.934Z,24.85
2018-12-03T12:47:11.141Z,30.63
2018-12-03T12:52:13.941Z,21.97
2018-12-03T12:57:16.857Z,21.80
2018-12-03T13:02:19.333Z,23.67
2018-12-03T13:07:21.929Z,22.53
2018-12-03T13:12:24.526Z,21.42
2018-12-03T13:17:27.542Z,25.00
2018-12-03T13:22:33.461Z,26.85
2018-12-03T13:27:36.002Z,26.17
2018-12-03T13:32:38.602Z,25.52
2018-12-03T13:37:41.200Z,23.50
2018-12-03T13:42:43.690Z,26.57
2018-12-03T13:47:46.217Z,27.50
2018-12-03T13:52:48.747Z,26.87
2018-12-03T13:57:51.257Z,27.90
2018-12-03T14:02:53.757Z,21.97
2018-12-03T14:07:56.345Z,22.82
2018-12-03T14:12:58.836Z,18.65
2018-12-03T14:18:01.546Z,19.77
2018-12-03T14:23:04.958Z,18.57
2018-12-03T14:28:07.554Z,17.40
2018-12-03T14:33:10.046Z,16.12
2018-12-03T14:38:12.541Z,13.15
2018-12-03T14:43:15.029Z,13.40
2018-12-03T14:48:17.529Z,15.98
2018-12-03T14:53:20.121Z,13.83
2018-12-03T14:58:22.613Z,18.57
2018-12-03T15:03:25.074Z,17.87
2018-12-03T15:08:27.657Z,14.28
2018-12-03T15:13:30.207Z,16.48
2018-12-03T15:18:32.690Z,17.12
2018-12-03T15:23:36.109Z,18.07
2018-12-03T15:28:39.209Z,19.65
2018-12-03T15:33:41.661Z,16.43
2018-12-03T15:38:44.204Z,17.42
2018-12-03T15:43:46.690Z,21.40
2018-12-03T15:48:49.193Z,22.85
2018-12-03T15:53:51.654Z,91.92
2018-12-03T15:58:54.137Z,19.80
2018-12-03T16:03:56.674Z,21.60
2018-12-03T16:08:59.170Z,19.20
2018-12-03T16:14:01.650Z,16.30
2018-12-03T16:19:04.134Z,16.95
2018-12-03T16:24:06.625Z,17.95
2018-12-03T16:29:09.103Z,17.27
2018-12-03T16:34:11.679Z,22.47
2018-12-03T16:39:14.130Z,18.73
2018-12-03T16:44:16.579Z,21.03
2018-12-03T16:49:19.087Z,17.70
2018-12-03T16:54:21.607Z,20.37
2018-12-03T16:59:24.218Z,16.17
2018-12-03T17:04:26.690Z,16.40
2018-12-03T17:09:29.209Z,15.15
2018-12-03T17:14:32.599Z,19.00
2018-12-03T17:19:35.186Z,15.65
2018-12-03T17:24:37.739Z,18.37
2018-12-03T17:29:40.335Z,17.73
2018-12-03T17:34:48.647Z,17.17
2018-12-03T17:39:47.413Z,12.23
2018-12-03T17:44:49.909Z,13.33
2018-12-03T17:49:52.369Z,15.00
2018-12-03T17:54:54.857Z,16.43
2018-12-03T17:59:57.329Z,18.37
2018-12-03T18:04:59.789Z,18.90
2018-12-03T18:10:02.482Z,12.75
2018-12-03T18:15:05.981Z,17.07
2018-12-03T18:20:08.498Z,17.90
2018-12-03T18:25:10.977Z,18.50
2018-12-03T18:30:13.450Z,18.17
2018-12-03T18:35:15.941Z,19.30
2018-12-03T18:40:18.666Z,19.52
2018-12-03T18:45:21.165Z,19.48
2018-12-03T18:50:23.671Z,16.70
2018-12-03T18:55:26.295Z,18.50
2018-12-03T19:00:28.847Z,17.05
2018-12-03T19:05:31.846Z,17.95
2018-12-03T19:10:34.333Z,20.17
2018-12-03T19:15:36.945Z,23.07
2018-12-03T19:20:39.437Z,30.37
2018-12-03T19:25:42.841Z,23.97
2018-12-03T19:30:46.062Z,34.18
2018-12-03T19:35:49.057Z,30.83
2018-12-03T19:40:52.281Z,31.50
2018-12-03T19:45:54.865Z,38.53
2018-12-03T19:50:57.351Z,34.88
2018-12-03T19:56:00.151Z,31.97
2018-12-03T20:01:02.661Z,39.83
2018-12-03T20:06:05.258Z,36.17
2018-12-03T20:11:08.389Z,35.75
2018-12-03T20:16:10.854Z,40.87
2018-12-03T20:21:13.446Z,38.27
2018-12-03T20:26:15.992Z,40.08
2018-12-03T20:31:18.734Z,35.03
2018-12-03T20:36:21.738Z,35.70
2018-12-03T20:41:24.341Z,34.33
2018-12-03T20:46:26.925Z,40.23
2018-12-03T20:51:29.549Z,35.67
2018-12-03T20:56:32.125Z,39.30
2018-12-03T21:01:34.721Z,14.37
2018-12-03T21:06:37.210Z,14.43
2018-12-03T21:11:39.901Z,14.97
2018-12-03T21:16:42.513Z,17.05
2018-12-03T21:21:44.977Z,22.13
2018-12-03T21:26:48.081Z,17.87
2018-12-03T21:31:50.554Z,19.80
2018-12-03T21:36:53.098Z,22.03
2018-12-03T21:41:56.325Z,19.10
2018-12-03T21:46:58.769Z,14.97
2018-12-03T21:52:01.298Z,11.63
2018-12-03T21:57:03.921Z,7.20
2018-12-03T22:02:06.381Z,6.93
2018-12-03T22:07:08.872Z,4.08
2018-12-03T22:12:11.311Z,6.27
2018-12-03T22:17:13.759Z,6.73
2018-12-03T22:22:16.241Z,7.37
2018-12-03T22:27:18.745Z,8.20
2018-12-03T22:32:21.541Z,12.13
2018-12-03T22:37:24.562Z,7.37
2018-12-03T22:42:27.094Z,9.38
2018-12-03T22:47:29.630Z,13.30
2018-12-03T22:52:32.125Z,11.33
2018-12-03T22:57:34.684Z,9.27
2018-12-03T23:02:37.194Z,12.13
2018-12-03T23:07:39.713Z,9.10
2018-12-03T23:12:42.297Z,8.53
2018-12-03T23:17:44.801Z,10.73
2018-12-03T23:22:47.405Z,10.23
2018-12-03T23:27:50.602Z,10.03
2018-12-03T23:32:53.101Z,11.38
2018-12-03T23:37:55.590Z,10.20
2018-12-03T23:42:58.177Z,10.68
2018-12-03T23:48:00.678Z,11.37
2018-12-03T23:53:03.185Z,10.70
2018-12-03T23:58:05.670Z,10.75
